• Join FlightAware (Why Join?)
  • Login
  • US Flag 
05:12AM EDT


 

Airport Tracker/Info


-or-


 

Live Flight TrackerFlight Track Log ✈ UAL3741 ✈ 15-Jun-2014 ✈ KBUF - KORD

Flight Track Log - Related Links

Times and Time Zones

All times are in EDT time to prevent confusion due to time zone crossing. See the UAL3741 flight status page for this flight to view local times or setup timezone preferences in your user account.

Time Position Orientation Groundspeed Altitude Reporting Facility
EDT Latitude Longitude Course Direction KTS MPH feet Rate Location/Type
01:54PM 42.9333 -78.7500 275° West 175 201 1,400  Level Buffalo TRACON
01:55PM 42.9000 -78.8333 241° Southwest 215 247 4,100 2,340 Climbing Buffalo TRACON
01:56PM 42.9167 -78.9167 285° West 242 278 6,600 2,520 Climbing Buffalo TRACON
01:57PM 42.9333 -79.0167 283° West 275 316 9,200 2,280 Climbing Buffalo TRACON
01:58PM 42.9500 -79.1167 283° West 287 330 11,200 2,100 Climbing Buffalo TRACON
01:59PM 42.9833 -79.2000 299° West 304 350 13,300 2,100 Climbing Buffalo TRACON
02:00PM 42.9695 -79.5471 275° West  Level FlightAware Approximate
02:00PM 42.9833 -79.3333 270° West 329 379 15,400  Level Buffalo TRACON
02:01PM 42.9833 -79.4500 270° West 337 388 17,100 1,560 Climbing Buffalo TRACON
02:02PM 42.9914 -79.5097 280° West 339 390 17,700 1,680 Climbing Cleveland Center
02:03PM 42.9956 -79.6436 272° West 352 405 19,800 1,980 Climbing Cleveland Center
02:04PM 42.9833 -79.7500 261° West 350 403 21,300 1,800 Climbing Toronto Center
02:05PM 43.0000 -79.8833 280° West 360 414 23,000 1,560 Climbing Toronto Center
02:06PM 43.0000 -80.0167 270° West 370 426 24,500 1,320 Climbing Toronto Center
02:07PM 43.0000 -80.1500 270° West 380 437 25,700 1,260 Climbing Toronto Center
02:08PM 43.0167 -80.3167 278° West 390 449 27,100 1,200 Climbing Toronto Center
02:09PM 43.0167 -80.4833 270° West 390 449 28,200 960 Climbing Toronto Center
02:10PM 43.0167 -80.6167 270° West 400 460 29,100 960 Climbing Toronto Center
02:11PM 43.0333 -80.8000 277° West 410 472 30,200 900 Climbing Toronto Center
02:12PM 43.0167 -80.9333 260° West 420 483 31,000 900 Climbing Toronto Center
02:13PM 43.0167 -81.1167 270° West 430 495 32,000 480 Climbing Toronto Center
02:14PM 43.0167 -81.2667 270° West 430 495 32,000  Level Toronto Center
02:15PM 43.0167 -81.4333 270° West 420 483 32,000  Level Toronto Center
02:16PM 43.0167 -81.6000 270° West 430 495 32,000  Level Toronto Center
02:17PM 43.0167 -81.7500 270° West 440 506 32,000  Level Toronto Center
02:18PM 43.0000 -81.9333 263° West 440 506 32,000  Level Toronto Center
02:19PM 43.0000 -82.1000 270° West 440 506 32,000  Level Toronto Center
02:20PM 43.0000 -82.2500 270° West 440 506 32,000  Level Toronto Center
02:21PM 43.0000 -82.4333 270° West 440 506 32,000  Level Toronto Center
02:22PM 43.0000 -82.6000 270° West 440 506 32,000  Level Toronto Center
02:23PM 43.0022 -82.7389 271° West 437 503 32,000  Level Cleveland Center
02:24PM 42.9969 -82.9031 268° West 437 503 32,000  Level Cleveland Center
02:25PM 42.9922 -83.0672 268° West 437 503 32,000  Level Cleveland Center
02:26PM 42.9858 -83.2297 267° West 436 502 32,000  Level Cleveland Center
02:27PM 42.9794 -83.4242 267° West 431 496 32,000  Level Cleveland Center
02:28PM 42.9733 -83.5844 267° West 431 496 32,000  Level Cleveland Center
02:29PM 42.9678 -83.7456 267° West 430 495 32,000  Level Cleveland Center
02:30PM 42.9522 -83.9047 262° West 427 491 32,000  Level Cleveland Center
02:31PM 42.9369 -84.0600 262° West 419 482 32,000  Level Cleveland Center
02:32PM 42.9189 -84.2353 262° West 396 456 32,000  Level Cleveland Center
02:33PM 42.9053 -84.3742 262° West 391 450 32,000  Level Cleveland Center
02:34PM 42.8908 -84.5233 263° West 395 455 32,000  Level Cleveland Center
02:35PM 42.8758 -84.6706 262° West 395 455 32,000  Level Cleveland Center
02:36PM 42.8578 -84.8467 262° West 394 453 32,000  Level Cleveland Center
02:37PM 42.8425 -84.9906 262° West 390 449 32,000  Level Cleveland Center
02:38PM 42.8264 -85.1350 261° West 387 445 32,000  Level Cleveland Center
02:39PM 42.8108 -85.2781 262° West 385 443 32,000  Level Cleveland Center
02:40PM 42.7956 -85.4200 262° West 382 440 32,000 -540 Level Cleveland Center
02:41PM 42.7750 -85.5589 259° West 377 434 31,000 -1,020 Descending Cleveland Center
02:42PM 42.7503 -85.6950 256° West 374 430 30,000 -1,080 Descending Cleveland Center
02:43PM 42.7219 -85.8550 256° West 364 419 28,800 -1,020 Descending Cleveland Center
02:44PM 42.6983 -85.9808 256° West 346 398 28,000 -720 Descending Cleveland Center
02:45PM 42.6828 -86.1031 260° West 334 384 27,400 -780 Descending Cleveland Center
02:46PM 42.7619 -86.1686 329° Northwest 367 422 26,400 -720 Descending Cleveland Center
02:47PM 42.8336 -86.0786 43° Northeast 376 433 26,000 -540 Descending Cleveland Center
02:49PM 42.8694 -85.8889 75° East 376 433 25,100 -840 Descending Chicago Center
02:50PM 42.8900 -85.7247 80° East 377 434 24,000 -660 Descending Chicago Center
02:51PM 42.8283 -85.6400 135° Southeast 336 387 23,800 -600 Descending Chicago Center
02:52PM 42.7564 -85.6878 206° Southwest 307 353 22,800 -900 Descending Chicago Center
02:53PM 42.7339 -85.7981 255° West 305 351 22,000 -780 Descending Chicago Center
02:54PM 42.7819 -85.8900 305° West 325 374 21,300 -840 Descending Chicago Center
02:55PM 42.8569 -85.9725 321° Northwest 342 394 20,300 -660 Descending Chicago Center
02:56PM 42.9408 -86.0797 317° Northwest 344 396 20,000 -180 Descending Chicago Center
02:57PM 42.9156 -86.1808 251° West 305 351 20,000  Level Chicago Center
02:58PM 42.8314 -86.1894 184° South 314 361 20,000  Level Chicago Center
02:59PM 42.7436 -86.1875 179° South 315 362 20,000  Level Chicago Center
03:00PM 42.6550 -86.1878 180° South 317 365 20,000  Level Chicago Center
03:01PM 42.5669 -86.1894 181° South 317 365 20,000  Level Chicago Center
03:02PM 42.5289 -86.2842 241° Southwest 294 338 20,000 -420 Level Chicago Center
03:03PM 42.5936 -86.3733 315° West 323 372 19,200 -960 Descending Chicago Center
03:04PM 42.6200 -86.4814 288° West 296 341 18,100 -1,320 Descending Chicago Center
03:05PM 42.6389 -86.5911 283° West 294 338 16,500 -1,500 Descending Chicago Center
03:06PM 42.6581 -86.6975 284° West 290 334 15,000 -1,500 Descending Chicago Center
03:07PM 42.6789 -86.7994 286° West 280 322 13,400 -1,620 Descending Chicago Center
03:09PM 42.6958 -86.9206 281° West 266 306 11,700 -1,320 Descending Chicago Center
03:10PM 42.6506 -86.9947 230° Southwest 259 298 10,700 -1,020 Descending Chicago Center
03:11PM 42.6044 -87.0592 226° Southwest 240 276 9,700 -840 Descending Chicago Center
03:12PM 42.5622 -87.1122 223° Southwest 208 239 9,000 -360 Descending Chicago Center
03:13PM 42.5219 -87.1653 224° Southwest 205 236 9,000  Level Chicago Center
03:14PM 42.4800 -87.2178 223° Southwest 205 236 9,000  Level Chicago Center
03:15PM 42.4308 -87.2800 223° Southwest 203 234 9,000  Level Chicago Center
03:16PM 42.3958 -87.3389 231° Southwest 203 234 9,000  Level Chicago Center
03:17PM 42.3717 -87.4158 247° West 205 236 9,000  Level Chicago Center
03:18PM 42.3669 -87.4925 265° West 211 243 9,000 -240 Level Chicago Center
03:19PM 42.3722 -87.5722 275° West 213 245 8,600 -780 Descending Chicago Center
03:20PM 42.3294 -87.5844 192° South 183 211 7,400 -780 Descending Chicago Center
03:21PM 42.2831 -87.5878 183° South 161 185 7,000 -240 Descending Chicago Center
03:22PM 42.2419 -87.6256 214° Southwest 164 189 7,000 -480 Level Chicago Center
03:23PM 42.2075 -87.6639 220° Southwest 162 186 6,000 -960 Descending Chicago Center
03:24PM 42.1706 -87.7075 221° Southwest 164 189 5,000 -960 Descending Chicago Center
03:25PM 42.1347 -87.7431 216° Southwest 161 185 4,100 -900 Descending Chicago Center
03:26PM 42.0972 -87.7867 221° Southwest 173 199 3,200 -960 Descending Chicago Center
03:27PM 42.0575 -87.8303 219° Southwest 174 200 2,200 -900 Descending Chicago Center
03:28PM 42.0281 -87.8625 219° Southwest 139 160 1,400 -720 Descending Chicago Center
03:29PM 42.0033 -87.8900 220° Southwest 121 139 800 -600 Descending Chicago Center
03:31PM 41.9793 -87.9074 206° Southwest  Level Estimated